createdAt,value
2022-11-04T00:01:05.452Z,24.80
2022-11-04T00:03:32.551Z,24.80
2022-11-04T00:06:03.183Z,24.90
2022-11-04T00:08:30.424Z,24.90
2022-11-04T00:11:18.162Z,24.90
2022-11-04T00:13:46.329Z,24.80
2022-11-04T00:16:33.441Z,24.80
2022-11-04T00:19:01.436Z,24.80
2022-11-04T00:21:47.703Z,24.80
2022-11-04T00:24:30.539Z,24.80
2022-11-04T00:27:17.347Z,24.80
2022-11-04T00:29:44.738Z,24.80
2022-11-04T00:32:30.282Z,24.80
2022-11-04T00:34:57.166Z,24.80
2022-11-04T00:37:24.180Z,24.80
2022-11-04T00:39:51.041Z,24.80
2022-11-04T00:42:17.901Z,24.70
2022-11-04T00:44:44.742Z,24.80
2022-11-04T00:47:11.657Z,24.80
2022-11-04T00:49:38.742Z,24.80
2022-11-04T00:52:05.783Z,24.70
2022-11-04T00:54:32.689Z,24.80
2022-11-04T00:56:59.559Z,24.80
2022-11-04T00:59:26.446Z,24.70
2022-11-04T01:01:53.409Z,24.80
2022-11-04T01:04:20.395Z,24.80
2022-11-04T01:06:47.344Z,24.80
2022-11-04T01:09:17.233Z,24.80
2022-11-04T01:11:44.103Z,23.60
2022-11-04T01:14:11.861Z,24.70
2022-11-04T01:16:39.922Z,24.70
2022-11-04T01:19:07.448Z,24.70
2022-11-04T01:21:34.332Z,24.70
2022-11-04T01:24:01.995Z,24.70
2022-11-04T01:26:30.171Z,24.70
2022-11-04T01:28:58.543Z,24.70
2022-11-04T01:31:29.042Z,24.70
2022-11-04T01:33:57.278Z,24.70
2022-11-04T01:36:25.920Z,24.70
2022-11-04T01:38:55.943Z,24.70
2022-11-04T01:41:30.981Z,24.70
2022-11-04T01:44:24.045Z,24.70
2022-11-04T01:46:54.031Z,24.70
2022-11-04T01:49:43.303Z,24.70
2022-11-04T01:52:22.552Z,24.70
2022-11-04T01:54:53.409Z,24.70
2022-11-04T01:57:30.674Z,24.70
2022-11-04T02:00:02.038Z,24.70
2022-11-04T02:02:29.121Z,24.70
2022-11-04T02:04:56.858Z,24.70
2022-11-04T02:07:24.484Z,24.70
2022-11-04T02:09:52.219Z,24.70
2022-11-04T02:12:37.939Z,24.70
2022-11-04T02:15:05.831Z,24.60
2022-11-04T02:18:13.607Z,24.60
2022-11-04T02:21:13.605Z,24.60
2022-11-04T02:24:02.151Z,24.70
2022-11-04T02:27:07.144Z,24.70
2022-11-04T02:30:07.665Z,24.70
2022-11-04T02:32:59.204Z,24.70
2022-11-04T02:35:31.803Z,24.70
2022-11-04T02:38:34.022Z,24.60
2022-11-04T02:41:28.069Z,24.60
2022-11-04T02:44:19.574Z,24.70
2022-11-04T02:46:57.374Z,24.70
2022-11-04T02:49:34.734Z,24.60
2022-11-04T02:52:17.889Z,24.60
2022-11-04T02:55:00.702Z,24.60
2022-11-04T02:57:34.995Z,24.60
2022-11-04T03:00:13.409Z,24.60
2022-11-04T03:02:42.521Z,24.60
2022-11-04T03:05:22.505Z,24.50
2022-11-04T03:07:54.198Z,24.50
2022-11-04T03:10:41.595Z,24.50
2022-11-04T03:13:22.949Z,24.60
2022-11-04T03:15:58.488Z,24.60
2022-11-04T03:18:43.675Z,24.50
2022-11-04T03:21:13.986Z,24.50
2022-11-04T03:23:41.628Z,24.50
2022-11-04T03:26:23.539Z,24.50
2022-11-04T03:29:06.076Z,24.50
2022-11-04T03:32:03.842Z,24.50
2022-11-04T03:34:31.535Z,24.60
2022-11-04T03:36:59.675Z,24.50
2022-11-04T03:39:26.590Z,24.50
2022-11-04T03:41:58.401Z,24.50
2022-11-04T03:44:26.092Z,24.50
2022-11-04T03:46:53.877Z,24.50
2022-11-04T03:49:25.033Z,24.50
2022-11-04T03:51:53.017Z,24.50
2022-11-04T03:54:20.733Z,24.50
2022-11-04T03:57:00.578Z,24.50
2022-11-04T04:00:01.372Z,24.50
2022-11-04T04:03:09.837Z,24.50
2022-11-04T04:05:58.387Z,24.50
2022-11-04T04:09:13.199Z,24.50
2022-11-04T04:12:02.259Z,24.50
2022-11-04T04:14:46.184Z,24.50
2022-11-04T04:17:39.700Z,24.40
2022-11-04T04:20:12.685Z,24.50
2022-11-04T04:22:56.903Z,24.40
2022-11-04T04:26:06.666Z,24.40
2022-11-04T04:28:35.150Z,24.40
2022-11-04T04:31:03.577Z,24.40
2022-11-04T04:33:30.552Z,24.40
2022-11-04T04:35:59.269Z,24.40
2022-11-04T04:38:48.484Z,24.40
2022-11-04T04:41:51.052Z,24.40
2022-11-04T04:44:46.924Z,24.40
2022-11-04T04:47:24.720Z,24.40
2022-11-04T04:50:00.579Z,24.40
2022-11-04T04:52:32.466Z,24.40
2022-11-04T04:54:59.342Z,24.40
2022-11-04T04:57:26.287Z,24.40
2022-11-04T04:59:53.255Z,24.40
2022-11-04T05:02:20.347Z,24.40
2022-11-04T05:04:47.634Z,24.40
2022-11-04T05:07:14.951Z,24.40
2022-11-04T05:09:41.874Z,24.30
2022-11-04T05:12:10.035Z,24.40
2022-11-04T05:14:36.988Z,24.30
2022-11-04T05:17:04.249Z,24.30
2022-11-04T05:19:31.308Z,24.40
2022-11-04T05:22:02.107Z,24.30
2022-11-04T05:24:29.106Z,24.40
2022-11-04T05:26:56.345Z,24.40
2022-11-04T05:29:23.270Z,24.40
2022-11-04T05:31:50.370Z,24.40
2022-11-04T05:34:17.334Z,24.40
2022-11-04T05:36:44.265Z,24.30
2022-11-04T05:39:14.100Z,24.30
2022-11-04T05:41:41.096Z,24.30
2022-11-04T05:44:10.819Z,24.30
2022-11-04T05:46:37.742Z,24.30
2022-11-04T05:49:05.154Z,24.10
2022-11-04T05:51:32.992Z,24.20
2022-11-04T05:54:01.633Z,24.30
2022-11-04T05:56:28.636Z,24.20
2022-11-04T05:58:55.723Z,24.30
2022-11-04T06:01:33.620Z,24.30
2022-11-04T06:04:02.806Z,24.30
2022-11-04T06:06:36.575Z,24.30
2022-11-04T06:09:04.343Z,24.20
2022-11-04T06:11:32.470Z,24.20
2022-11-04T06:13:59.979Z,24.20
2022-11-04T06:16:27.917Z,24.30
2022-11-04T06:18:54.955Z,24.20
2022-11-04T06:21:28.475Z,24.20
2022-11-04T06:23:57.429Z,24.30
2022-11-04T06:26:30.790Z,24.30
2022-11-04T06:28:58.223Z,24.30
2022-11-04T06:31:25.394Z,24.30
2022-11-04T06:33:52.368Z,24.20
2022-11-04T06:36:19.299Z,24.30
2022-11-04T06:38:47.231Z,24.20
2022-11-04T06:41:17.312Z,24.30
2022-11-04T06:43:44.899Z,24.30
2022-11-04T06:46:35.939Z,23.50
2022-11-04T06:49:05.156Z,24.30
2022-11-04T06:51:33.437Z,24.20
2022-11-04T06:54:00.463Z,24.30
2022-11-04T06:56:27.379Z,24.20
2022-11-04T06:58:55.945Z,24.30
2022-11-04T07:01:27.433Z,24.20
2022-11-04T07:03:58.324Z,24.30
2022-11-04T07:06:26.713Z,24.20
2022-11-04T07:08:53.917Z,24.20
2022-11-04T07:11:22.594Z,24.20
2022-11-04T07:13:49.805Z,24.20
2022-11-04T07:16:18.516Z,24.20
2022-11-04T07:18:45.660Z,24.60
2022-11-04T07:21:13.261Z,24.30
2022-11-04T07:23:40.318Z,24.30
2022-11-04T07:26:11.559Z,24.30
2022-11-04T07:28:38.910Z,24.20
2022-11-04T07:31:08.721Z,24.10
2022-11-04T07:33:35.892Z,24.00
2022-11-04T07:36:13.486Z,24.00
2022-11-04T07:38:40.391Z,23.90
2022-11-04T07:41:08.298Z,23.90
2022-11-04T07:43:35.294Z,23.80
2022-11-04T07:46:09.880Z,23.90
2022-11-04T07:48:37.392Z,23.80
2022-11-04T07:51:07.349Z,23.90
2022-11-04T07:53:34.777Z,23.90
2022-11-04T07:56:07.850Z,24.00
2022-11-04T07:58:35.147Z,24.00
2022-11-04T08:01:15.182Z,24.00
2022-11-04T08:03:44.100Z,24.10
2022-11-04T08:06:16.281Z,24.10
2022-11-04T08:08:44.858Z,24.20
2022-11-04T08:11:25.332Z,24.20
2022-11-04T08:13:52.473Z,24.20
2022-11-04T08:16:27.735Z,24.20
2022-11-04T08:19:01.804Z,22.70
2022-11-04T08:21:30.745Z,24.30
2022-11-04T08:24:03.426Z,24.40
2022-11-04T08:26:30.719Z,24.90
2022-11-04T08:28:57.860Z,24.40
2022-11-04T08:31:31.354Z,24.40
2022-11-04T08:33:58.247Z,24.40
2022-11-04T08:36:30.961Z,24.40
2022-11-04T08:38:58.969Z,24.40
2022-11-04T08:41:29.435Z,24.30
2022-11-04T08:44:00.798Z,24.00
2022-11-04T08:46:31.911Z,24.10
2022-11-04T08:48:58.906Z,23.90
2022-11-04T08:51:27.785Z,23.80
2022-11-04T08:53:54.876Z,23.70
2022-11-04T08:56:32.951Z,23.50
2022-11-04T08:59:02.493Z,23.50
2022-11-04T09:01:35.836Z,23.50
2022-11-04T09:04:04.799Z,23.50
2022-11-04T09:06:37.234Z,23.50
2022-11-04T09:09:07.757Z,23.50
2022-11-04T09:11:39.863Z,23.60
2022-11-04T09:14:08.623Z,23.70
2022-11-04T09:16:37.522Z,23.60
2022-11-04T09:19:04.556Z,23.80
2022-11-04T09:21:31.686Z,23.80
2022-11-04T09:23:59.070Z,23.90
2022-11-04T09:26:26.860Z,24.00
2022-11-04T09:28:58.310Z,24.00
2022-11-04T09:31:29.846Z,24.10
2022-11-04T09:33:57.673Z,24.10
2022-11-04T09:36:25.881Z,24.10
2022-11-04T09:38:53.096Z,24.20
2022-11-04T09:41:56.596Z,24.20
2022-11-04T09:45:00.066Z,24.30
2022-11-04T09:47:30.557Z,24.30
2022-11-04T09:50:00.692Z,24.30
2022-11-04T09:52:44.541Z,24.40
2022-11-04T09:55:52.756Z,24.20
2022-11-04T09:58:20.052Z,24.40
2022-11-04T10:01:11.273Z,24.40
2022-11-04T10:04:09.258Z,24.50
2022-11-04T10:06:48.253Z,24.50
2022-11-04T10:09:23.853Z,24.60
2022-11-04T10:12:54.790Z,24.60
2022-11-04T10:16:10.811Z,24.70
2022-11-04T10:19:06.920Z,24.80
2022-11-04T10:22:01.824Z,24.80
2022-11-04T10:25:13.455Z,24.80
2022-11-04T10:27:49.421Z,24.90
2022-11-04T10:30:25.412Z,24.80
2022-11-04T10:32:59.568Z,24.80
2022-11-04T10:35:42.612Z,24.90
2022-11-04T10:38:47.484Z,25.00
2022-11-04T10:41:54.159Z,25.10
2022-11-04T10:44:26.962Z,25.20
2022-11-04T10:47:06.593Z,25.20
2022-11-04T10:50:13.990Z,25.30
2022-11-04T10:52:38.793Z,25.40
2022-11-04T10:55:47.589Z,25.60
2022-11-04T10:58:31.966Z,25.70
2022-11-04T11:01:00.132Z,25.70
2022-11-04T11:03:34.906Z,25.70
2022-11-04T11:06:31.296Z,25.80
2022-11-04T11:09:13.583Z,25.90
2022-11-04T11:11:47.424Z,25.90
2022-11-04T11:14:20.720Z,26.00
2022-11-04T11:16:48.312Z,26.00
2022-11-04T11:19:19.618Z,26.00
2022-11-04T11:21:53.056Z,25.90
2022-11-04T11:24:30.726Z,26.00
2022-11-04T11:27:03.287Z,26.00
2022-11-04T11:29:42.151Z,26.00
2022-11-04T11:32:43.447Z,26.00
2022-11-04T11:35:21.090Z,26.00
2022-11-04T11:37:49.020Z,26.00
2022-11-04T11:40:31.944Z,26.00
2022-11-04T11:43:01.482Z,26.00
2022-11-04T11:45:30.868Z,25.90
2022-11-04T11:47:57.960Z,25.60
2022-11-04T11:50:35.709Z,25.80
2022-11-04T11:53:19.752Z,25.80
2022-11-04T11:56:24.170Z,25.80
2022-11-04T12:02:58.874Z,25.80
2022-11-04T12:11:49.921Z,25.80
2022-11-04T12:14:48.898Z,25.70
2022-11-04T12:17:27.937Z,25.70
2022-11-04T12:20:35.453Z,25.70
2022-11-04T12:23:37.075Z,25.70
2022-11-04T12:26:56.786Z,25.70
2022-11-04T12:29:37.323Z,25.70
2022-11-04T12:32:22.177Z,25.70
2022-11-04T12:35:10.198Z,25.70
2022-11-04T12:38:03.373Z,25.70
2022-11-04T12:44:33.184Z,25.70
2022-11-04T12:47:39.134Z,25.70
2022-11-04T12:50:58.406Z,25.40
2022-11-04T12:54:09.555Z,25.70
2022-11-04T12:56:40.978Z,25.70
2022-11-04T12:59:40.409Z,25.70
2022-11-04T13:02:16.919Z,25.70
2022-11-04T13:05:58.114Z,25.70
2022-11-04T13:08:33.133Z,25.70
2022-11-04T13:11:22.980Z,25.80
2022-11-04T13:14:16.261Z,25.80
2022-11-04T13:16:51.725Z,25.70
2022-11-04T13:19:56.474Z,25.80
2022-11-04T13:22:36.863Z,25.80
2022-11-04T13:25:28.045Z,25.70
2022-11-04T13:27:56.831Z,25.80
2022-11-04T13:31:00.848Z,25.80
2022-11-04T13:34:04.327Z,26.60
2022-11-04T13:36:48.715Z,25.80
2022-11-04T13:39:34.703Z,25.80
2022-11-04T13:42:47.602Z,25.80
2022-11-04T13:45:21.265Z,25.80
2022-11-04T13:47:58.725Z,25.80
2022-11-04T13:50:40.655Z,25.80
2022-11-04T13:53:13.567Z,25.80
2022-11-04T13:55:50.990Z,26.00
2022-11-04T13:58:28.172Z,25.80
2022-11-04T14:01:29.522Z,25.80
2022-11-04T14:04:14.412Z,25.80
2022-11-04T14:07:08.514Z,24.80
2022-11-04T14:09:43.520Z,25.80
2022-11-04T14:12:19.007Z,25.80
2022-11-04T14:15:07.720Z,25.80
2022-11-04T14:17:34.598Z,25.80
2022-11-04T14:20:24.858Z,25.80
2022-11-04T14:23:01.149Z,25.80
2022-11-04T14:25:36.716Z,25.80
2022-11-04T14:28:09.632Z,25.80
2022-11-04T14:31:00.489Z,25.80
2022-11-04T14:33:42.137Z,25.80
2022-11-04T14:36:21.033Z,25.80
2022-11-04T14:39:12.018Z,25.80
2022-11-04T14:41:41.673Z,25.80
2022-11-04T14:44:12.749Z,25.70
2022-11-04T14:46:46.685Z,25.80
2022-11-04T14:49:39.531Z,25.80
2022-11-04T14:52:16.846Z,25.80
2022-11-04T14:54:43.964Z,25.80
2022-11-04T14:57:21.877Z,25.70
2022-11-04T14:59:49.891Z,25.80
2022-11-04T15:02:28.831Z,25.80
2022-11-04T15:05:01.773Z,25.80
2022-11-04T15:07:37.943Z,25.80
2022-11-04T15:10:28.742Z,25.80
2022-11-04T15:13:02.488Z,25.80
2022-11-04T15:15:44.529Z,25.80
2022-11-04T15:18:29.139Z,25.80
2022-11-04T15:21:04.286Z,25.80
2022-11-04T15:23:50.907Z,25.80
2022-11-04T15:26:29.686Z,25.80
2022-11-04T15:29:07.527Z,25.80
2022-11-04T15:31:36.208Z,25.80
2022-11-04T15:34:11.748Z,25.80
2022-11-04T15:36:44.056Z,25.80
2022-11-04T15:39:46.545Z,25.80
2022-11-04T15:42:45.098Z,25.80
2022-11-04T15:45:46.224Z,25.80
2022-11-04T15:48:40.115Z,25.80
2022-11-04T15:51:26.389Z,25.80
2022-11-04T15:54:32.428Z,25.80
2022-11-04T15:57:05.843Z,25.70
2022-11-04T15:59:37.257Z,25.70
2022-11-04T16:02:17.615Z,25.70
2022-11-04T16:04:49.103Z,25.60
2022-11-04T16:07:18.249Z,25.70
2022-11-04T16:09:55.726Z,25.70
2022-11-04T16:12:36.017Z,24.70
2022-11-04T16:15:04.256Z,25.70
2022-11-04T16:17:32.369Z,25.70
2022-11-04T16:20:10.724Z,25.20
2022-11-04T16:22:42.319Z,25.70
2022-11-04T16:25:23.252Z,25.70
2022-11-04T16:27:51.049Z,25.60
2022-11-04T16:30:23.189Z,25.70
2022-11-04T16:32:55.982Z,25.60
2022-11-04T16:35:25.333Z,25.80
2022-11-04T16:37:54.389Z,25.80
2022-11-04T16:40:24.399Z,25.70
2022-11-04T16:42:53.595Z,25.80
2022-11-04T16:45:50.870Z,25.80
2022-11-04T16:48:23.786Z,25.80
2022-11-04T16:50:50.723Z,25.80
2022-11-04T16:53:17.625Z,25.80
2022-11-04T16:55:45.161Z,25.70
2022-11-04T16:58:18.893Z,25.70
2022-11-04T17:00:46.122Z,25.70
2022-11-04T17:03:21.835Z,25.80
2022-11-04T17:05:56.683Z,25.80
2022-11-04T17:08:26.364Z,25.90
2022-11-04T17:10:54.268Z,25.80
2022-11-04T17:13:21.249Z,25.80
2022-11-04T17:15:48.381Z,25.80
2022-11-04T17:18:17.345Z,25.80
2022-11-04T17:20:51.670Z,25.80
2022-11-04T17:23:18.961Z,25.80
2022-11-04T17:25:46.338Z,25.80
2022-11-04T17:28:16.471Z,25.80
2022-11-04T17:30:45.075Z,25.80
2022-11-04T17:33:18.315Z,25.70
2022-11-04T17:35:49.563Z,25.80
2022-11-04T17:38:18.188Z,25.70
2022-11-04T17:41:06.163Z,25.80
2022-11-04T17:43:51.796Z,25.80
2022-11-04T17:46:37.074Z,25.80
2022-11-04T17:49:15.826Z,25.70
2022-11-04T17:51:48.747Z,25.70
2022-11-04T17:54:16.804Z,25.70
2022-11-04T17:56:44.023Z,25.70
2022-11-04T17:59:13.869Z,25.70
2022-11-04T18:01:42.952Z,25.70
2022-11-04T18:04:17.262Z,25.70
2022-11-04T18:06:45.297Z,25.50
2022-11-04T18:09:13.050Z,25.70
2022-11-04T18:11:59.019Z,25.60
2022-11-04T18:14:28.211Z,25.60
2022-11-04T18:16:55.488Z,25.60
2022-11-04T18:19:24.156Z,25.60
2022-11-04T18:21:51.883Z,25.60
2022-11-04T18:24:19.428Z,25.60
2022-11-04T18:26:49.646Z,25.60
2022-11-04T18:29:17.323Z,25.60
2022-11-04T18:31:52.025Z,25.60
2022-11-04T18:34:21.515Z,25.50
2022-11-04T18:36:50.431Z,25.60
2022-11-04T18:39:18.860Z,25.60
2022-11-04T18:41:46.472Z,25.60
2022-11-04T18:44:24.721Z,25.60
2022-11-04T18:46:51.666Z,25.60
2022-11-04T18:49:18.798Z,25.60
2022-11-04T18:51:48.798Z,25.50
2022-11-04T18:54:16.475Z,25.50
2022-11-04T18:56:44.010Z,24.00
2022-11-04T18:59:14.560Z,25.50
2022-11-04T19:01:43.233Z,25.50
2022-11-04T19:04:10.296Z,25.50
2022-11-04T19:06:42.578Z,25.50
2022-11-04T19:09:44.877Z,25.50
2022-11-04T19:12:18.359Z,25.40
2022-11-04T19:14:45.309Z,25.40
2022-11-04T19:17:12.287Z,25.40
2022-11-04T19:19:41.185Z,25.40
2022-11-04T19:22:09.064Z,25.40
2022-11-04T19:24:36.186Z,25.30
2022-11-04T19:27:04.447Z,25.40
2022-11-04T19:29:33.022Z,25.40
2022-11-04T19:32:00.939Z,25.40
2022-11-04T19:34:27.896Z,25.40
2022-11-04T19:36:55.000Z,25.40
2022-11-04T19:39:21.930Z,25.40
2022-11-04T19:42:07.661Z,25.30
2022-11-04T19:44:34.705Z,25.30
2022-11-04T19:47:01.623Z,25.40
2022-11-04T19:49:31.525Z,25.30
2022-11-04T19:51:59.941Z,25.30
2022-11-04T19:54:28.532Z,25.30
2022-11-04T19:56:55.678Z,25.30
2022-11-04T19:59:22.715Z,25.30
2022-11-04T20:01:50.453Z,25.30
2022-11-04T20:04:18.227Z,25.30
2022-11-04T20:06:45.210Z,25.30
2022-11-04T20:09:12.522Z,25.30
2022-11-04T20:12:00.202Z,25.20
2022-11-04T20:14:29.101Z,25.20
2022-11-04T20:16:56.127Z,25.20
2022-11-04T20:19:23.545Z,25.20
2022-11-04T20:21:51.219Z,25.20
2022-11-04T20:24:18.392Z,25.10
2022-11-04T20:26:47.001Z,25.20
2022-11-04T20:29:16.243Z,25.20
2022-11-04T20:31:44.669Z,25.20
2022-11-04T20:34:14.897Z,25.20
2022-11-04T20:36:42.765Z,25.10
2022-11-04T20:39:17.916Z,25.10
2022-11-04T20:41:46.459Z,25.10
2022-11-04T20:44:15.388Z,25.10
2022-11-04T20:46:44.166Z,25.10
2022-11-04T20:49:12.351Z,25.10
2022-11-04T20:51:48.753Z,25.00
2022-11-04T20:54:17.989Z,25.10
2022-11-04T20:56:45.478Z,25.10
2022-11-04T20:59:14.095Z,25.10
2022-11-04T21:01:45.042Z,25.00
2022-11-04T21:04:18.264Z,25.10
2022-11-04T21:06:47.087Z,25.10
2022-11-04T21:09:16.114Z,25.00
2022-11-04T21:11:44.585Z,25.00
2022-11-04T21:14:15.873Z,25.00
2022-11-04T21:16:43.838Z,25.00
2022-11-04T21:19:15.850Z,25.00
2022-11-04T21:26:04.836Z,25.00
2022-11-04T21:28:31.837Z,25.00
2022-11-04T21:35:09.270Z,25.00
2022-11-04T21:37:37.273Z,25.00
2022-11-04T21:40:04.823Z,24.90
2022-11-04T21:42:31.746Z,24.90
2022-11-04T21:44:58.596Z,24.70
2022-11-04T21:47:25.481Z,24.90
2022-11-04T21:49:52.387Z,24.80
2022-11-04T21:52:19.238Z,24.90
2022-11-04T21:54:46.161Z,24.90
2022-11-04T21:57:13.123Z,24.80
2022-11-04T21:59:40.072Z,24.80
2022-11-04T22:02:07.159Z,24.80
2022-11-04T22:04:42.221Z,24.90
2022-11-04T22:07:11.904Z,24.90
2022-11-04T22:09:38.889Z,25.40
2022-11-04T22:12:06.221Z,24.80
2022-11-04T22:14:33.095Z,24.80
2022-11-04T22:16:59.999Z,24.80
2022-11-04T22:19:26.987Z,24.80
2022-11-04T22:22:00.240Z,24.80
2022-11-04T22:24:27.163Z,24.30
2022-11-04T22:26:54.178Z,24.80
2022-11-04T22:29:21.123Z,24.80
2022-11-04T22:31:48.076Z,24.80
2022-11-04T22:34:15.006Z,24.80
2022-11-04T22:36:41.962Z,24.80
2022-11-04T22:39:16.364Z,24.70
2022-11-04T22:41:46.113Z,24.80
2022-11-04T22:44:13.055Z,24.70
2022-11-04T22:46:40.034Z,24.70
2022-11-04T22:49:07.693Z,24.70
2022-11-04T22:51:34.605Z,24.70
2022-11-04T22:54:07.571Z,24.80
2022-11-04T22:56:35.631Z,24.70
2022-11-04T22:59:02.768Z,24.70
2022-11-04T23:01:31.562Z,24.70
2022-11-04T23:03:59.046Z,24.70
2022-11-04T23:06:26.021Z,24.70
2022-11-04T23:08:59.576Z,24.70
2022-11-04T23:11:49.394Z,24.70
2022-11-04T23:14:38.914Z,24.70
2022-11-04T23:17:42.893Z,24.70
2022-11-04T23:20:14.263Z,24.70
2022-11-04T23:23:00.624Z,24.70
2022-11-04T23:25:27.656Z,24.70
2022-11-04T23:28:14.310Z,24.70
2022-11-04T23:30:50.364Z,24.70
2022-11-04T23:33:17.248Z,24.70
2022-11-04T23:36:07.621Z,24.60
2022-11-04T23:38:35.606Z,24.60
2022-11-04T23:41:25.667Z,24.60
2022-11-04T23:43:52.779Z,24.60
2022-11-04T23:46:43.129Z,24.60
2022-11-04T23:49:14.670Z,24.60
2022-11-04T23:52:00.365Z,24.50
2022-11-04T23:54:46.466Z,24.50
2022-11-04T23:57:35.460Z,24.50
